ADDS TAF Board (Experimental) INFO Settings
IDs: Format: Expanded Condensed

KMIA - Miami Intl, FL, US

Issued at 1501 UTC 03 Jul 2015
Updated at: 1539 UTC 03 Jul 2015
Time1453Z 03/16Z 03/17Z 03/18Z 03/19Z 03/20Z 03/21Z 03/22Z 03/23Z 04/00Z 04/01Z 04/02Z 04/03Z 04/04Z
Type OBS PRVL PRVL PRVL PRVL PRVL PRVL PRVL PRVL PRVL PRVL PRVL PRVL PRVL
VIS 10 >6 >6 >6 >6 >6 >6 >6 >6 >6 >6 >6 >6 >6
CIG -- -- -- -- -- -- -- -- -- -- -- -- -- --
Cover SCT SCT SCT SCT SCT SCT SCT SCT SCT FEW FEW FEW FEW FEW
FltCat VFR VFR VFR VFR VFR VFR VFR VFR VFR VFR VFR VFR VFR VFR
WX -- -- -- -- -- -- -- -- -- -- -- -- -- --
WDir 120 110 110 110 110 110 110 110 110 110 110 110 110 110
WSpd 9 10 10 10 10 10 10 10 10 4 4 4 4 4
WGst -- -- -- -- -- -- -- -- -- -- -- -- -- --
R08/26
XWnd -5 -4 -4 -4 -4 -4 -4 -4 -4 -2 -2 -2 -2 -2
HWnd 8 9 9 9 9 9 9 9 9 4 4 4 4 4
R09/27
XWnd -5 -4 -4 -4 -4 -4 -4 -4 -4 -2 -2 -2 -2 -2
HWnd 8 9 9 9 9 9 9 9 9 4 4 4 4 4
R12/30
XWnd -0 2 2 2 2 2 2 2 2 1 1 1 1 1
HWnd 9 10 10 10 10 10 10 10 10 4 4 4 4 4

NOTE: TEMPO conditions in [brackets]. Keep in mind TEMPO conditions might be better (lower impact) than prevailing conditions.

Raw TAF
KMIA 031501Z 0315/0412 11010KT P6SM SCT035
  FM040000 11004KT P6SM FEW025


Raw METAR
KMIA 031453Z 12009KT 10SM SCT026 SCT250 32/23 A3009 RMK AO2 SLP190 CB DSNT SE MOV NW T03170228 50005
KMIA 031353Z 12009KT 10SM SCT025TCU BKN250 31/23 A3010 RMK AO2 SLP191 TCU S-SW T03060233
KMIA 031253Z 11007KT 10SM FEW025 BKN250 30/23 A3009 RMK AO2 SLP188 CB DSNT S-SW MOV NW T03000228

METAR Board
Radar Display
Forecast Discussion

TAF Board Legend

Potential Impact
Threat None Slight Moderate High
Visibility (sm) ≥5.1 5.1>X≥3 3>X≥1 <1
Ceiling (100 ft) ≥30.1 30.1>X≥10 10>X≥5 <5
Wind Speed (kt) <10 10≤X<20 20≤X<30 ≥30
Wind Gust (kt) <15 15≤X<25 25≤X<35 ≥35
Weather No Wx Reported VCTS,-TS,-FZRA,SN TS,FZRA +TS,+FZRA,+SN